Terminal Aerodrome Forecast
Issued by NWS

Current Version | Previous Version | Text Only | Print | Product List | Glossary On
Versions: 1 2 3 4 5 6 7 8 9 10 11 12 13 14 15 16 17 18 19 20 21 22 23 24 25 26 27 28 29
000
FTUS44 KOUN 310114 AAA
TAFPNC
TAF AMD
KPNC 310114Z 3101/3124 07007KT P6SM VCTS SCT050CB BKN250
      TEMPO 3101/3104 3SM TSRA BKN030CB
     FM310400 VRB03KT P6SM SCT050 BKN250
     FM311500 01005KT P6SM OVC050 PROB30 3115/3118 4SM -TSRA
      OVC050CB
     FM311800 02009KT P6SM VCTS BKN050CB
      TEMPO 3118/3122 2SM TSRA OVC020CB=

USA.gov is the U.S. government's official web portal to all federal, state and local government web resources and services.